Friday, August 17, 2018, 10:53 PM EDT
Back to Local

KIPT, Williamsport-lycoming County

Location: Montoursville, PA, United States Lat: 41.25
Local Time: 10:53 PM EDT ( 2:53 GMT) Lon: -76.917
Time Zone: US/Eastern Elev: 528 ft

Show me the last for .
Show Decoded

2018-08-17 22:13 METAR KIPT 180213Z 00000KT 7SM FEW004 23/22 A2993 RMK AO2 T02330222 =
2018-08-17 21:54 METAR KIPT 180154Z 00000KT 8SM SCT080 23/22 A2993 RMK AO2 SLP131 T02330222 =
2018-08-17 20:54 METAR KIPT 180054Z 00000KT 10SM CLR 24/23 A2993 RMK AO2 SLP133 T02390228 =
2018-08-17 19:54 METAR KIPT 172354Z 22003KT 10SM CLR 24/23 A2991 RMK AO2 SLP125 60001 T02440233
                 10311 20244 50003 =
2018-08-17 18:54 METAR KIPT 172254Z 28004KT 10SM FEW060 SCT085 26/23 A2991 RMK AO2 LTG DSNT SE
                 RAB2158E11 SLP127 P0000 T02610228 =
2018-08-17 17:54 METAR KIPT 172154Z 26005KT 10SM FEW047 SCT075 BKN100 26/23 A2993 RMK AO2 LTG
                 DSNT E-SW RAB2056E51 SLP130 P0001 T02560228 =
2018-08-17 17:45 METAR KIPT 172145Z 28008KT 8SM VCTS -RA FEW060 BKN095 BKN120 26/23 A2992 RMK AO2
                 LTG DSNT E-SW RAB2056 TS W MOV E P0001 T02560228 =
2018-08-17 17:08 METAR KIPT 172108Z 27014KT 10SM -RA SCT044 SCT060 BKN075 27/22 A2991 RMK AO2 LTG
                 DSNT ALQDS RAB2056 P0000 T02720217 =
2018-08-17 16:54 METAR KIPT 172054Z 25008KT 10SM VCTS FEW060 SCT070 29/21 A2990 RMK AO2 LTG DSNT
                 ALQDS SLP121 TS W MOV E T02940211 56008 =
2018-08-17 16:50 METAR KIPT 172050Z 23008KT 10SM VCTS FEW060 29/22 A2990 RMK AO2 LTG DSNT ALQDS
                 TS W MOV E =
2018-08-17 15:54 METAR KIPT 171954Z 19008KT 10SM FEW045 FEW055 31/22 A2990 RMK AO2 LTG DSNT W AND
                 NW SLP121 T03060217 =
2018-08-17 14:54 METAR KIPT 171854Z 15008G18KT 10SM SCT048 BKN060 31/22 A2992 RMK AO2 SLP129
                 T03060217 =
2018-08-17 13:54 METAR KIPT 171754Z VRB03KT 10SM SCT050 29/22 A2996 RMK AO2 SLP140 60010
                 T02890217 10294 20211 58023 =
2018-08-17 12:54 METAR KIPT 171654Z VRB03KT 10SM SCT050 28/22 A2997 RMK AO2 RAB04E25 SLP146 P0001
                 T02780217 =
2018-08-17 11:54 METAR KIPT 171554Z 17006KT 10SM FEW025 SCT048 BKN060 26/21 A3001 RMK AO2 SLP159
                 T02560211 =
2018-08-17 10:54 METAR KIPT 171454Z 00000KT 10SM SCT014 BKN040 25/21 A3003 RMK AO2 SLP164 60009
                 T02500211 58010 =
2018-08-17 09:54 METAR KIPT 171354Z 09006KT 10SM SCT014 24/21 A3004 RMK AO2 SLP169 T02390211 =
2018-08-17 08:54 METAR KIPT 171254Z 08008KT 10SM SCT011 BKN044 BKN080 22/21 A3004 RMK AO2
                 RAB03E51 SLP170 P0009 T02220206 =
2018-08-17 08:30 METAR KIPT 171230Z 03003KT 3SM RA BR FEW005 BKN065 OVC080 21/21 A3006 RMK AO2
                 RAB03 P0008 T02110206 =
2018-08-17 08:23 METAR KIPT 171223Z 00000KT 2SM -RA BR FEW005 SCT043 OVC065 21/21 A3007 RMK AO2
                 VIS 1/2V5 RAB03 P0003 T02110206 =
2018-08-17 07:54 METAR KIPT 171154Z 10006KT 9SM BKN070 BKN080 OVC095 22/21 A3005 RMK AO2 RAE33
                 SLP174 P0007 60034 70034 T02170206 10222 20206 50000 =
2018-08-17 07:38 METAR KIPT 171138Z 00000KT 10SM SCT005 BKN055 OVC070 22/21 A3006 RMK AO2 RAE33
                 P0007 T02170206 =
2018-08-17 07:05 METAR KIPT 171105Z 03007KT 3SM -RA BR BKN005 BKN055 OVC070 21/20 A3006 RMK AO2
                 P0006 T02110200 =
2018-08-17 06:54 METAR KIPT 171054Z 00000KT 1 1/2SM RA BR BKN005 BKN039 OVC070 21/20 A3008 RMK
                 AO2 RAB0956 SLP182 P0027 T02110200 =
2018-08-17 06:38 METAR KIPT 171038Z 28009KT 5SM -RA BR BKN005 BKN070 OVC100 21/20 A3008 RMK AO2
                 RAB0956 P0020 T02110200 =
2018-08-17 06:33 METAR KIPT 171033Z 28006KT 5SM RA BR FEW005 BKN075 OVC100 21/20 A3008 RMK AO2
                 RAB0956 P0019 T02110200 =
2018-08-17 06:14 METAR KIPT 171014Z AUTO 26006KT 3SM -RA BR SCT005 BKN022 OVC085 21/20 A3007 RMK
                 AO2 RAB0956 P0018 T02110200 =
2018-08-17 06:04 METAR KIPT 171004Z AUTO VRB04KT 1 1/2SM +RA BR SCT006 BKN017 OVC080 21/20 A3007
                 RMK AO2 RAB0956 P0004 T02110200 =
2018-08-17 05:54 METAR KIPT 170954Z AUTO 26003KT 9SM FEW006 FEW050 OVC080 21/20 A3006 RMK AO2
                 RAB03E44 SLP176 P0000 T02110200 =
2018-08-17 05:19 METAR KIPT 170919Z AUTO 00000KT 8SM -RA SCT005 BKN070 OVC100 21/20 A3006 RMK AO2
                 RAB03 P0000 T02110200 =
2018-08-17 05:12 METAR KIPT 170912Z AUTO 00000KT 8SM -RA BKN005 OVC095 21/20 A3006 RMK AO2 RAB03
                 CIG 005V017 P0000 T02110200 =
2018-08-17 04:54 METAR KIPT 170854Z AUTO 00000KT 8SM BKN006 OVC095 21/20 A3005 RMK AO2 RAB17E51
                 SLP173 P0000 60000 T02110200 58012 =
2018-08-17 04:47 METAR KIPT 170847Z AUTO 00000KT 9SM -RA BKN006 OVC100 21/20 A3006 RMK AO2 RAB17
                 P0000 T02110200 =
2018-08-17 04:14 METAR KIPT 170814Z AUTO 00000KT 9SM SCT005 OVC095 22/20 A3006 RMK AO2 T02170200
                 =
2018-08-17 03:54 METAR KIPT 170754Z AUTO 12003KT 8SM OVC005 22/20 A3006 RMK AO2 SLP176 T02170200
                 =
2018-08-17 03:30 METAR KIPT 170730Z AUTO 00000KT 9SM BKN005 OVC055 22/20 A3008 RMK AO2 T02170200
                 =
2018-08-17 02:54 METAR KIPT 170654Z AUTO 00000KT 7SM SCT006 BKN080 OVC120 21/20 A3009 RMK AO2
                 SLP184 T02110200 =
2018-08-17 02:24 METAR KIPT 170624Z AUTO 00000KT 8SM FEW006 BKN080 21/20 A3008 RMK AO2 T02110200
                 =
2018-08-17 01:54 METAR KIPT 170554Z AUTO 26003KT 8SM FEW055 22/20 A3009 RMK AO2 SLP184 60000
                 T02170200 10250 20211 56002 =
2018-08-17 00:54 METAR KIPT 170454Z AUTO 00000KT 8SM CLR 22/21 A3009 RMK AO2 SLP186 T02170206
                 403110194 =
2018-08-16 23:54 METAR KIPT 170354Z AUTO 00000KT 10SM CLR 23/21 A3009 RMK AO2 RAB12E24 SLP184
                 P0000 T02280206 =
2018-08-16 22:54 METAR KIPT 170254Z AUTO 28003KT 10SM SCT048 BKN065 23/21 A3009 RMK AO2 SLP187
                 T02280211 51008 =

Support USWX by starting your Amazon purchase here.